Huvudsida
METAR-TAF:

METAR-TAF

Flygplatser :

Peking, Kina

Pekings internationella flygplats

latitud: 39-56N, longitud: 116-17E, höjd: 55 m

Aktuellt väderrapport

Denna rapport gjordes för 44 minuter sedan, klockan 00:30 UTC
Vind 2 kt varierande vindriktning
Temperatur -4°C
Fuktighet 68%
Tryck 1026 hPa
Sikt 10 km eller mer
Inga moln under 1 500 m eller inga cumulonimbus

METAR: ZBAA 200030Z VRB01MPS CAVOK M04/M09 Q1026 NOSIG

Tid: 09:14 (01:14 UTC)

Väderprognos

Denna rapport gjordes för 3 timmar och 54 minuter sedan, klockan 21:20 UTC
Prognos gäller från 20 kl. 00 UTC till 20 kl. 24 UTC
Vind 8 kt från nord
Sikt 10 km eller mer
Inga moln under 1 500 m eller inga cumulonimbus

TAF: ZBAA 192120Z 2000/2024 36004MPS CAVOK TX08/2007Z TNM06/21Z

Aktuella väderrapporter och prognoser från 4000 flygplatser (METAR- och TAF-rapporter).

De tillgängliga stationerna syns som gula och röda prickar på kartan.

För musen över prickarna för att se namnen på stationerna.

Klicka sedan för att få väderrapporter och prognoser.

För att ändra kartan: Klicka på de gröna knapparna med ett svart kors på för att zooma in; den gröna knappen med ett streck på för att zooma ut; eller på de gröna pilarna för angränsande kartor.


METAR-TAF: